createdAt,value
2022-08-03T00:00:30.279Z,99716.09
2022-08-03T00:01:30.340Z,99713.54
2022-08-03T00:02:30.305Z,99716.09
2022-08-03T00:03:30.308Z,99717.46
2022-08-03T00:04:34.184Z,99721.3
2022-08-03T00:05:31.540Z,99718.54
2022-08-03T00:06:36.759Z,99711.64
2022-08-03T00:07:34.565Z,99715.1
2022-08-03T00:08:34.333Z,99714.02
2022-08-03T00:09:37.277Z,99714.91
2022-08-03T00:10:37.159Z,99710.95
2022-08-03T00:11:37.265Z,99711.22
2022-08-03T00:12:37.220Z,99711.76
2022-08-03T00:13:37.201Z,99710.97
2022-08-03T00:14:37.171Z,99713.25
2022-08-03T00:15:37.322Z,99713.86
2022-08-03T00:16:37.291Z,99713.64
2022-08-03T00:17:53.685Z,99714.07
2022-08-03T00:18:41.123Z,99713.25
2022-08-03T00:19:41.092Z,99714.14
2022-08-03T00:20:41.255Z,99710.12
2022-08-03T00:21:41.015Z,99710.73
2022-08-03T00:22:41.214Z,99711.98
2022-08-03T00:23:51.176Z,99713.02
2022-08-03T00:24:44.627Z,99712.34
2022-08-03T00:25:44.600Z,99713.02
2022-08-03T00:26:44.562Z,99711.87
2022-08-03T00:27:44.764Z,99714.28
2022-08-03T00:28:44.716Z,99713.36
2022-08-03T00:29:59.399Z,99713.2
2022-08-03T00:30:47.232Z,99713.25
2022-08-03T00:31:59.209Z,99709.59
2022-08-03T00:32:51.984Z,99710.79
2022-08-03T00:33:59.035Z,99712.83
2022-08-03T00:34:57.813Z,99711.55
2022-08-03T00:35:56.999Z,99713.06
2022-08-03T00:36:56.797Z,99712.42
2022-08-03T00:37:57.313Z,99708.83
2022-08-03T00:38:57.006Z,99713.04
2022-08-03T00:39:56.961Z,99712.28
2022-08-03T00:40:57.004Z,99709.58
2022-08-03T00:41:57.081Z,99710.41
2022-08-03T00:42:58.318Z,99714.3
2022-08-03T00:43:57.022Z,99714.09
2022-08-03T00:44:57.143Z,99712.54
2022-08-03T00:45:57.214Z,99713.97
2022-08-03T00:46:57.026Z,99715.83
2022-08-03T00:47:57.547Z,99717.55
2022-08-03T00:48:57.049Z,99721.39
2022-08-03T00:49:58.180Z,99721.14
2022-08-03T00:50:57.797Z,99722.67
2022-08-03T00:51:57.174Z,99720.48
2022-08-03T00:52:58.556Z,99722.66
2022-08-03T00:53:57.161Z,99726.92
2022-08-03T00:54:57.123Z,99723.45
2022-08-03T00:55:57.545Z,99720.7
2022-08-03T00:56:59.822Z,99719.88
2022-08-03T00:57:58.013Z,99721.57
2022-08-03T00:58:57.728Z,99724.02
2022-08-03T00:59:57.454Z,99722.45
2022-08-03T01:00:57.555Z,99725.02
2022-08-03T01:01:57.582Z,99729.91
2022-08-03T01:02:57.612Z,99730.41
2022-08-03T01:03:57.493Z,99730.23
2022-08-03T01:04:57.564Z,99733.89
2022-08-03T01:12:15.901Z,99735.47
2022-08-03T01:14:20.972Z,99738.41
2022-08-03T01:16:23.055Z,99743.23
2022-08-03T01:17:28.480Z,99736.63
2022-08-03T01:18:34.682Z,99740.89
2022-08-03T01:24:47.061Z,99746.97
2022-08-03T01:30:53.474Z,99747.16
2022-08-03T01:34:03.426Z,99744.23
2022-08-03T01:35:01.435Z,99749.05
2022-08-03T01:36:00.492Z,99748.94
2022-08-03T01:37:01.151Z,99744.43
2022-08-03T01:39:02.288Z,99739.69
2022-08-03T01:40:02.163Z,99740.53
2022-08-03T01:42:07.662Z,99736.92
2022-08-03T01:43:07.739Z,99739.02
2022-08-03T01:44:29.358Z,99738.7
2022-08-03T01:45:12.055Z,99734.84
2022-08-03T01:46:10.384Z,99738.76
2022-08-03T01:47:11.596Z,99734.73
2022-08-03T01:48:11.683Z,99735.76
2022-08-03T01:49:11.683Z,99734.72
2022-08-03T01:50:10.904Z,99735.79
2022-08-03T01:51:10.776Z,99734.31
2022-08-03T01:52:11.277Z,99737.7
2022-08-03T01:53:10.514Z,99736.96
2022-08-03T01:54:11.742Z,99733.77
2022-08-03T01:55:12.188Z,99734.6
2022-08-03T01:56:10.320Z,99735.66
2022-08-03T01:57:10.616Z,99730.59
2022-08-03T01:58:11.266Z,99734.48
2022-08-03T01:59:10.798Z,99731.12
2022-08-03T02:00:10.753Z,99735.39
2022-08-03T02:01:11.615Z,99735.3
2022-08-03T02:02:29.892Z,99735.89
2022-08-03T02:03:15.443Z,99736.56
2022-08-03T02:04:17.285Z,99737.95
2022-08-03T02:05:14.900Z,99736.28
2022-08-03T02:06:59.691Z,99733.69
2022-08-03T02:07:17.130Z,99739.52
2022-08-03T02:08:17.401Z,99736.69
2022-08-03T02:09:17.469Z,99736.39
2022-08-03T02:10:34.356Z,99738.73
2022-08-03T02:11:17.121Z,99740.28
2022-08-03T02:12:18.159Z,99738.85
2022-08-03T02:13:17.142Z,99740.11
2022-08-03T02:14:17.433Z,99741.86
2022-08-03T02:15:18.024Z,99737.37
2022-08-03T02:16:18.276Z,99738.38
2022-08-03T02:17:16.753Z,99738.4
2022-08-03T02:18:18.273Z,99739.84
2022-08-03T02:19:18.226Z,99737.47
2022-08-03T02:20:17.473Z,99740.09
2022-08-03T02:21:33.047Z,99738.13
2022-08-03T02:22:18.725Z,99738.02
2022-08-03T02:23:19.090Z,99737.03
2022-08-03T02:24:18.765Z,99734.7
2022-08-03T02:25:18.771Z,99736
2022-08-03T02:26:20.142Z,99737.19
2022-08-03T02:27:21.257Z,99740.7
2022-08-03T02:28:21.238Z,99742.81
2022-08-03T02:29:21.487Z,99741.22
2022-08-03T02:30:23.676Z,99742.17
2022-08-03T02:31:24.265Z,99741.75
2022-08-03T02:32:24.679Z,99744.91
2022-08-03T02:33:25.835Z,99741.11
2022-08-03T02:34:24.322Z,99744.12
2022-08-03T02:35:24.456Z,99744.29
2022-08-03T02:36:25.297Z,99738.89
2022-08-03T02:37:24.939Z,99744.41
2022-08-03T02:38:26.188Z,99743.74
2022-08-03T02:39:25.104Z,99742.36
2022-08-03T02:40:23.495Z,99745.19
2022-08-03T02:41:24.739Z,99746.25
2022-08-03T02:42:23.369Z,99741.23
2022-08-03T02:43:24.123Z,99745
2022-08-03T02:44:25.043Z,99743.5
2022-08-03T02:45:24.393Z,99745.5
2022-08-03T02:46:24.522Z,99740.5
2022-08-03T02:47:23.402Z,99734.91
2022-08-03T02:48:25.386Z,99738.95
2022-08-03T02:49:49.446Z,99734.22
2022-08-03T02:50:26.155Z,99737.38
2022-08-03T02:51:26.732Z,99731.87
2022-08-03T02:52:26.813Z,99736.16
2022-08-03T02:53:26.467Z,99733.69
2022-08-03T02:54:26.386Z,99735.2
2022-08-03T02:55:26.162Z,99731.2
2022-08-03T02:56:25.762Z,99727.34
2022-08-03T02:57:26.553Z,99735.26
2022-08-03T02:58:25.905Z,99732
2022-08-03T02:59:25.754Z,99733.29
2022-08-03T03:00:28.512Z,99737.11
2022-08-03T03:01:27.236Z,99736.08
2022-08-03T03:02:25.451Z,99737.53
2022-08-03T03:03:25.965Z,99738.64
2022-08-03T03:04:30.009Z,99743.34
2022-08-03T03:05:53.403Z,99744.52
2022-08-03T03:06:32.421Z,99741.27
2022-08-03T03:07:36.037Z,99744.02
2022-08-03T03:08:33.205Z,99747.02
2022-08-03T03:09:40.387Z,99746.73
2022-08-03T03:10:35.015Z,99751.93
2022-08-03T03:11:36.274Z,99743.77
2022-08-03T03:12:37.061Z,99743.77
2022-08-03T03:13:35.234Z,99739.48
2022-08-03T03:14:35.052Z,99739.61
2022-08-03T03:15:35.611Z,99738.66
2022-08-03T03:16:35.001Z,99743.48
2022-08-03T03:17:35.561Z,99740.88
2022-08-03T03:18:35.196Z,99744.75
2022-08-03T03:19:35.280Z,99747.92
2022-08-03T03:20:35.186Z,99744.59
2022-08-03T03:21:35.336Z,99741.02
2022-08-03T03:22:35.534Z,99741.84
2022-08-03T03:23:39.188Z,99739.41
2022-08-03T03:24:36.429Z,99743.88
2022-08-03T03:25:36.379Z,99739.28
2022-08-03T03:26:40.713Z,99744.45
2022-08-03T03:27:39.475Z,99744.3
2022-08-03T03:28:38.941Z,99749.05
2022-08-03T03:29:39.268Z,99752.58
2022-08-03T03:30:39.109Z,99750.73
2022-08-03T03:31:39.272Z,99755.44
2022-08-03T03:32:39.069Z,99754.61
2022-08-03T03:33:39.140Z,99755.81
2022-08-03T03:34:38.931Z,99756.06
2022-08-03T03:35:40.219Z,99754.95
2022-08-03T03:36:39.076Z,99753.8
2022-08-03T03:37:39.163Z,99752.92
2022-08-03T03:38:39.195Z,99755.97
2022-08-03T03:39:39.133Z,99757.59
2022-08-03T03:40:39.281Z,99758.93
2022-08-03T03:41:39.992Z,99763.95
2022-08-03T03:42:39.343Z,99763.38
2022-08-03T03:43:39.184Z,99763.42
2022-08-03T03:44:39.343Z,99759.77
2022-08-03T03:45:40.969Z,99761.44
2022-08-03T03:46:39.733Z,99761.97
2022-08-03T03:47:39.398Z,99765.38
2022-08-03T03:48:39.420Z,99763.08
2022-08-03T03:49:39.902Z,99765.3
2022-08-03T03:50:39.266Z,99766.61
2022-08-03T03:51:39.248Z,99770.17
2022-08-03T03:52:39.292Z,99768.62
2022-08-03T03:53:39.425Z,99771.8
2022-08-03T03:54:40.127Z,99767.75
2022-08-03T03:56:01.181Z,99766.95
2022-08-03T03:56:41.318Z,99768.77
2022-08-03T03:57:41.105Z,99763.02
2022-08-03T03:58:41.242Z,99765.7
2022-08-03T03:59:42.180Z,99766.26
2022-08-03T04:00:41.378Z,99769.97
2022-08-03T04:01:41.163Z,99768.59
2022-08-03T04:02:41.396Z,99773.7
2022-08-03T04:03:41.263Z,99771.98
2022-08-03T04:04:41.287Z,99777.32
2022-08-03T04:05:45.798Z,99773.47
2022-08-03T04:06:42.406Z,99775.64
2022-08-03T04:08:45.373Z,99785.18
2022-08-03T04:09:47.635Z,99782.23
2022-08-03T04:10:48.511Z,99785.88
2022-08-03T04:11:51.420Z,99786.91
2022-08-03T04:12:51.203Z,99786.27
2022-08-03T04:14:01.866Z,99786.91
2022-08-03T04:14:50.535Z,99788.34
2022-08-03T04:15:50.722Z,99786.88
2022-08-03T04:16:51.884Z,99787.09
2022-08-03T04:17:50.335Z,99786.2
2022-08-03T04:18:53.835Z,99784.55
2022-08-03T04:19:53.285Z,99786.23
2022-08-03T04:20:51.947Z,99793.06
2022-08-03T04:21:51.968Z,99787.09
2022-08-03T04:22:51.528Z,99789.96
2022-08-03T04:23:55.818Z,99791.5
2022-08-03T04:25:00.027Z,99788.89
2022-08-03T04:25:57.892Z,99784.98
2022-08-03T04:26:57.896Z,99792.98
2022-08-03T04:28:29.182Z,99791.05
2022-08-03T04:29:01.569Z,99788.92
2022-08-03T04:30:02.624Z,99785.78
2022-08-03T04:31:02.391Z,99785.44
2022-08-03T04:32:08.721Z,99791.48
2022-08-03T04:33:06.360Z,99790.85
2022-08-03T04:34:05.378Z,99793.1
2022-08-03T04:35:06.652Z,99788.94
2022-08-03T04:36:06.890Z,99790.5
2022-08-03T04:38:07.586Z,99794.74
2022-08-03T04:39:10.783Z,99795.55
2022-08-03T04:40:09.639Z,99793.55
2022-08-03T04:41:08.356Z,99791.69
2022-08-03T04:42:09.060Z,99794.98
2022-08-03T04:43:08.978Z,99795.07
2022-08-03T04:44:08.638Z,99793.06
2022-08-03T04:45:08.377Z,99789.86
2022-08-03T04:46:08.478Z,99792.61
2022-08-03T04:47:07.919Z,99793.27
2022-08-03T04:48:07.550Z,99795.14
2022-08-03T04:49:07.774Z,99794.29
2022-08-03T04:50:12.512Z,99793.71
2022-08-03T04:51:09.901Z,99795.38
2022-08-03T04:52:10.312Z,99793.05
2022-08-03T04:53:09.833Z,99791.64
2022-08-03T04:54:13.200Z,99791.6
2022-08-03T04:55:09.976Z,99790.25
2022-08-03T04:56:09.988Z,99798.14
2022-08-03T04:57:23.183Z,99794.29
2022-08-03T04:58:10.624Z,99791.25
2022-08-03T04:59:11.118Z,99791.47
2022-08-03T05:00:11.054Z,99791.67
2022-08-03T05:01:10.813Z,99793.59
2022-08-03T05:02:10.739Z,99794.17
2022-08-03T05:03:20.363Z,99795.03
2022-08-03T05:04:11.670Z,99794.19
2022-08-03T05:05:11.452Z,99795.44
2022-08-03T05:06:11.810Z,99796.46
2022-08-03T05:07:12.631Z,99795.88
2022-08-03T05:08:11.432Z,99797.83
2022-08-03T05:09:11.525Z,99800.16
2022-08-03T05:10:16.186Z,99802.83
2022-08-03T05:11:13.792Z,99802.54
2022-08-03T05:12:13.714Z,99799.98
2022-08-03T05:13:13.569Z,99801.78
2022-08-03T05:14:13.556Z,99805.33
2022-08-03T05:15:14.133Z,99806.08
2022-08-03T05:16:14.176Z,99802.68
2022-08-03T05:17:13.631Z,99806.64
2022-08-03T05:18:14.477Z,99805.53
2022-08-03T05:19:13.634Z,99808.05
2022-08-03T05:20:13.718Z,99807.1
2022-08-03T05:21:13.789Z,99803.34
2022-08-03T05:22:14.170Z,99805.2
2022-08-03T05:23:13.780Z,99805.46
2022-08-03T05:24:13.769Z,99806.25
2022-08-03T05:25:19.280Z,99808.04
2022-08-03T05:26:17.613Z,99804.91
2022-08-03T05:27:17.878Z,99811.66
2022-08-03T05:28:17.583Z,99809
2022-08-03T05:29:17.672Z,99814.22
2022-08-03T05:30:31.173Z,99809.22
2022-08-03T05:31:21.188Z,99811.9
2022-08-03T05:32:21.565Z,99815.09
2022-08-03T05:33:21.235Z,99811.42
2022-08-03T05:34:21.109Z,99810
2022-08-03T05:35:57.776Z,99812.43
2022-08-03T05:36:23.015Z,99813.64
2022-08-03T05:37:23.075Z,99813.95
2022-08-03T05:38:23.885Z,99813.08
2022-08-03T05:39:25.462Z,99813.73
2022-08-03T05:40:25.527Z,99816.78
2022-08-03T05:41:37.036Z,99811.85
2022-08-03T05:42:29.106Z,99811.92
2022-08-03T05:43:29.115Z,99814.92
2022-08-03T05:44:29.160Z,99815.85
2022-08-03T05:45:29.229Z,99815.64
2022-08-03T05:46:29.194Z,99817.05
2022-08-03T05:47:29.411Z,99816.78
2022-08-03T05:48:29.178Z,99819.13
2022-08-03T05:49:29.248Z,99824.66
2022-08-03T05:50:29.247Z,99822.29
2022-08-03T05:51:29.278Z,99821.97
2022-08-03T05:52:29.273Z,99824.91
2022-08-03T05:53:29.252Z,99828.25
2022-08-03T05:54:56.441Z,99826.76
2022-08-03T05:55:30.903Z,99827.73
2022-08-03T05:56:30.700Z,99822.81
2022-08-03T05:57:30.652Z,99823.04
2022-08-03T05:58:30.914Z,99823.03
2022-08-03T05:59:38.712Z,99822.27
2022-08-03T06:00:35.305Z,99821.84
2022-08-03T06:01:35.440Z,99821.98
2022-08-03T06:02:35.370Z,99824.59
2022-08-03T06:03:35.349Z,99826.48
2022-08-03T06:04:35.341Z,99822.52
2022-08-03T06:05:35.411Z,99826.64
2022-08-03T06:06:39.716Z,99828.84
2022-08-03T06:07:40.072Z,99828.63
2022-08-03T06:08:40.403Z,99831.45
2022-08-03T06:10:33.733Z,99831.9
2022-08-03T06:10:41.132Z,99827.9
2022-08-03T06:11:41.227Z,99833.17
2022-08-03T06:12:41.337Z,99833.7
2022-08-03T06:13:41.180Z,99830.39
2022-08-03T06:14:41.411Z,99830.27
2022-08-03T06:15:41.536Z,99832.33
2022-08-03T06:16:41.230Z,99834.68
2022-08-03T06:18:43.571Z,99835.8
2022-08-03T06:19:43.667Z,99829.53
2022-08-03T06:20:43.724Z,99836.66
2022-08-03T06:21:43.676Z,99837.79
2022-08-03T06:22:51.306Z,99839.28
2022-08-03T06:23:52.956Z,99838.97
2022-08-03T06:24:53.707Z,99838.16
2022-08-03T06:25:51.870Z,99845.47
2022-08-03T06:26:51.925Z,99841.05
2022-08-03T06:27:51.892Z,99842.55
2022-08-03T06:28:54.140Z,99839.49
2022-08-03T06:29:51.947Z,99843.12
2022-08-03T06:30:51.959Z,99841.44
2022-08-03T06:31:52.341Z,99842
2022-08-03T06:32:52.523Z,99843.52
2022-08-03T06:34:33.268Z,99843.36
2022-08-03T06:34:53.505Z,99844.3
2022-08-03T06:35:53.593Z,99846.15
2022-08-03T06:36:55.459Z,99847.84
2022-08-03T06:37:55.196Z,99846.34
2022-08-03T06:38:55.185Z,99852.62
2022-08-03T06:39:55.292Z,99848.7
2022-08-03T06:40:55.208Z,99848.66
2022-08-03T06:41:55.236Z,99844.58
2022-08-03T06:42:59.024Z,99850.67
2022-08-03T06:44:03.187Z,99843.16
2022-08-03T06:45:00.728Z,99846.11
2022-08-03T06:46:00.906Z,99844.88
2022-08-03T06:47:00.939Z,99847.3
2022-08-03T06:48:04.869Z,99847.28
2022-08-03T06:49:01.587Z,99849.19
2022-08-03T06:50:16.267Z,99847.68
2022-08-03T06:51:04.372Z,99851.67
2022-08-03T06:52:06.872Z,99844
2022-08-03T06:53:05.104Z,99846.78
2022-08-03T06:54:04.596Z,99848.3
2022-08-03T06:55:05.201Z,99844.95
2022-08-03T06:56:05.171Z,99843.18
2022-08-03T06:57:04.944Z,99850.18
2022-08-03T06:58:04.647Z,99849.84
2022-08-03T06:59:05.062Z,99845.2
2022-08-03T07:00:11.846Z,99846.53
2022-08-03T07:01:09.649Z,99848.31
2022-08-03T07:02:09.658Z,99848.86
2022-08-03T07:03:09.499Z,99849.73
2022-08-03T07:04:09.560Z,99849.11
2022-08-03T07:05:10.015Z,99851.74
2022-08-03T07:06:09.599Z,99851
2022-08-03T07:07:09.612Z,99853.44
2022-08-03T07:08:09.898Z,99849
2022-08-03T07:09:09.672Z,99846.57
2022-08-03T07:10:10.374Z,99852.2
2022-08-03T07:11:09.654Z,99852.12
2022-08-03T07:12:09.800Z,99849.78
2022-08-03T07:13:09.738Z,99851.38
2022-08-03T07:14:09.776Z,99852.77
2022-08-03T07:15:20.688Z,99846.92
2022-08-03T07:16:11.753Z,99849.97
2022-08-03T07:17:12.100Z,99855.18
2022-08-03T07:18:11.781Z,99856.16
2022-08-03T07:19:11.729Z,99854.97
2022-08-03T07:20:11.724Z,99854.8
2022-08-03T07:21:11.729Z,99852.3
2022-08-03T07:22:11.888Z,99852.19
2022-08-03T07:23:18.974Z,99853.47
2022-08-03T07:24:16.031Z,99849.33
2022-08-03T07:25:15.984Z,99852.98
2022-08-03T07:26:15.967Z,99851.97
2022-08-03T07:27:16.707Z,99856.94
2022-08-03T07:28:16.003Z,99850.9
2022-08-03T07:29:15.901Z,99849.57
2022-08-03T07:30:16.221Z,99847.78
2022-08-03T07:31:16.044Z,99851.36
2022-08-03T07:32:16.372Z,99849.98
2022-08-03T07:33:16.003Z,99853.12
2022-08-03T07:34:16.145Z,99853.48
2022-08-03T07:35:24.433Z,99851.86
2022-08-03T07:36:16.655Z,99857.11
2022-08-03T07:37:16.713Z,99853.98
2022-08-03T07:38:16.664Z,99855.77
2022-08-03T07:39:18.104Z,99853.13
2022-08-03T07:40:16.753Z,99852.34
2022-08-03T07:41:16.923Z,99853.38
2022-08-03T07:42:17.098Z,99855.74
2022-08-03T07:43:16.660Z,99854.72
2022-08-03T07:44:16.874Z,99849.64
2022-08-03T07:45:17.001Z,99855.52
2022-08-03T07:46:16.900Z,99853.23
2022-08-03T07:48:17.238Z,99859.55
2022-08-03T07:49:17.345Z,99854.19
2022-08-03T07:50:17.327Z,99856.44
2022-08-03T07:51:17.338Z,99861.42
2022-08-03T07:52:17.512Z,99859.98
2022-08-03T07:53:17.328Z,99862.16
2022-08-03T07:54:17.379Z,99862.78
2022-08-03T07:55:21.371Z,99857.95
2022-08-03T07:56:17.878Z,99862.36
2022-08-03T07:57:17.843Z,99864.14
2022-08-03T07:58:21.968Z,99863.91
2022-08-03T07:59:20.375Z,99862.12
2022-08-03T08:00:20.597Z,99866.05
2022-08-03T08:01:20.487Z,99866.1
2022-08-03T08:02:20.368Z,99870.05
2022-08-03T08:03:20.510Z,99864.12
2022-08-03T08:04:20.472Z,99866.39
2022-08-03T08:05:20.631Z,99866.61
2022-08-03T08:06:21.000Z,99864.65
2022-08-03T08:07:20.777Z,99866.52
2022-08-03T08:08:20.594Z,99864.61
2022-08-03T08:09:20.444Z,99867.37
2022-08-03T08:10:20.568Z,99865.5
2022-08-03T08:11:20.619Z,99865.55
2022-08-03T08:12:20.917Z,99867.65
2022-08-03T08:13:20.521Z,99865.16
2022-08-03T08:14:20.570Z,99868.89
2022-08-03T08:15:20.655Z,99867.59
2022-08-03T08:16:20.485Z,99867
2022-08-03T08:17:20.621Z,99870.36
2022-08-03T08:18:20.543Z,99872.06
2022-08-03T08:19:20.686Z,99867.23
2022-08-03T08:20:28.471Z,99867.28
2022-08-03T08:21:22.908Z,99872.98
2022-08-03T08:22:29.918Z,99877.16
2022-08-03T08:23:42.500Z,99871.51
2022-08-03T08:24:31.190Z,99875.31
2022-08-03T08:25:31.977Z,99868.14
2022-08-03T08:26:31.150Z,99870.21
2022-08-03T08:28:31.450Z,99871.53
2022-08-03T08:28:33.784Z,99870.65
2022-08-03T08:29:32.648Z,99868.45
2022-08-03T08:30:33.397Z,99868.7
2022-08-03T08:31:32.589Z,99872.25
2022-08-03T08:32:32.714Z,99875.55
2022-08-03T08:33:54.279Z,99873.84
2022-08-03T08:34:34.205Z,99877.66
2022-08-03T08:35:34.315Z,99879.45
2022-08-03T08:36:34.847Z,99877.41
2022-08-03T08:37:34.343Z,99879.55
2022-08-03T08:38:34.965Z,99879.84
2022-08-03T08:39:34.234Z,99879.27
2022-08-03T08:40:34.474Z,99879.36
2022-08-03T08:41:34.281Z,99880.45
2022-08-03T08:42:34.470Z,99880.8
2022-08-03T08:43:34.315Z,99873.02
2022-08-03T08:44:34.274Z,99874.38
2022-08-03T08:45:34.393Z,99882.3
2022-08-03T08:46:34.378Z,99885.39
2022-08-03T08:47:51.084Z,99880.27
2022-08-03T08:48:42.585Z,99883.56
2022-08-03T08:49:40.488Z,99884.33
2022-08-03T08:50:41.491Z,99880.81
2022-08-03T08:51:59.296Z,99888.23
2022-08-03T08:52:43.513Z,99883.12
2022-08-03T08:53:45.768Z,99882.39
2022-08-03T08:54:43.763Z,99881.94
2022-08-03T08:55:59.131Z,99885.09
2022-08-03T08:56:47.363Z,99889.75
2022-08-03T08:57:52.404Z,99886.31
2022-08-03T08:58:54.803Z,99893.17
2022-08-03T09:00:01.953Z,99886.56
2022-08-03T09:00:54.175Z,99886.62
2022-08-03T09:01:59.749Z,99886.38
2022-08-03T09:02:56.901Z,99883.07
2022-08-03T09:03:56.734Z,99884.61
2022-08-03T09:04:57.279Z,99884.03
2022-08-03T09:05:57.119Z,99881.89
2022-08-03T09:07:18.768Z,99880.97
2022-08-03T09:07:58.373Z,99885.17
2022-08-03T09:08:58.333Z,99885.12
2022-08-03T09:10:10.500Z,99884.27
2022-08-03T09:11:00.189Z,99884.53
2022-08-03T09:12:14.577Z,99886.22
2022-08-03T09:13:01.620Z,99882.92
2022-08-03T09:14:01.655Z,99888
2022-08-03T09:17:07.295Z,99883
2022-08-03T09:18:07.835Z,99881.23
2022-08-03T09:19:23.142Z,99880.47
2022-08-03T09:20:10.362Z,99884.8
2022-08-03T09:21:34.249Z,99879.93
2022-08-03T09:22:18.747Z,99881.3
2022-08-03T09:23:59.505Z,99885.89
2022-08-03T09:24:40.824Z,99880.1
2022-08-03T09:26:49.612Z,99879.16
2022-08-03T09:29:39.093Z,99882.3
2022-08-03T09:30:44.821Z,99876.02
2022-08-03T09:31:45.810Z,99876.41
2022-08-03T09:32:42.605Z,99878.53
2022-08-03T09:33:48.681Z,99879.23
2022-08-03T09:34:55.348Z,99878.12
2022-08-03T09:35:57.291Z,99883.78
2022-08-03T09:37:01.134Z,99878.62
2022-08-03T09:39:03.263Z,99871.85
2022-08-03T09:40:02.234Z,99878.55
2022-08-03T09:41:02.219Z,99879.3
2022-08-03T09:42:06.138Z,99879.68
2022-08-03T09:43:03.143Z,99881.85
2022-08-03T09:44:03.231Z,99876.81
2022-08-03T09:45:03.220Z,99877.36
2022-08-03T09:46:04.076Z,99883.15
2022-08-03T09:47:03.696Z,99886.11
2022-08-03T09:50:09.186Z,99886.45
2022-08-03T09:51:14.151Z,99881.91
2022-08-03T09:53:14.975Z,99877.91
2022-08-03T09:55:23.508Z,99880.55
2022-08-03T09:56:36.243Z,99884.36
2022-08-03T09:57:24.970Z,99879.78
2022-08-03T09:58:24.759Z,99881.39
2022-08-03T09:59:25.024Z,99882.98
2022-08-03T10:00:24.128Z,99884.86
2022-08-03T10:01:32.556Z,99885.98
2022-08-03T10:02:25.834Z,99883.38
2022-08-03T10:03:25.677Z,99884.25
2022-08-03T10:04:24.867Z,99885.52
2022-08-03T10:05:31.939Z,99881.91
2022-08-03T10:06:29.329Z,99882.6
2022-08-03T10:07:28.769Z,99879.74
2022-08-03T10:08:28.876Z,99882.17
2022-08-03T10:09:28.847Z,99891.77
2022-08-03T10:10:41.775Z,99889.44
2022-08-03T10:11:40.556Z,99890.05
2022-08-03T10:12:38.819Z,99887.33
2022-08-03T10:13:39.956Z,99888.81
2022-08-03T10:14:39.226Z,99884.9
2022-08-03T10:16:24.147Z,99884.92
2022-08-03T10:16:41.100Z,99889.55
2022-08-03T10:17:41.113Z,99888.97
2022-08-03T10:18:41.018Z,99885.11
2022-08-03T10:19:41.065Z,99888.06
2022-08-03T10:21:48.106Z,99888.03
2022-08-03T10:22:44.610Z,99891.3
2022-08-03T10:23:44.670Z,99890.23
2022-08-03T10:24:47.863Z,99890.42
2022-08-03T10:25:47.101Z,99889.47
2022-08-03T10:26:49.746Z,99891.27
2022-08-03T10:27:47.936Z,99887.59
2022-08-03T10:28:50.272Z,99891.31
2022-08-03T10:29:50.521Z,99890.73
2022-08-03T10:30:50.787Z,99897.97
2022-08-03T10:31:57.297Z,99895.98
2022-08-03T10:33:53.442Z,99892.97
2022-08-03T10:34:59.902Z,99895.45
2022-08-03T10:35:54.288Z,99888.88
2022-08-03T10:36:52.724Z,99893.7
2022-08-03T10:37:59.301Z,99895.22
2022-08-03T10:38:56.214Z,99893.28
2022-08-03T10:39:57.381Z,99890.81
2022-08-03T10:40:59.118Z,99887.08
2022-08-03T10:41:56.769Z,99895.2
2022-08-03T10:42:56.780Z,99892.87
2022-08-03T10:45:02.864Z,99893.91
2022-08-03T10:46:01.585Z,99892.08
2022-08-03T10:47:00.014Z,99894.42
2022-08-03T10:48:00.302Z,99892.17
2022-08-03T10:49:00.214Z,99889.36
2022-08-03T10:50:00.274Z,99889.95
2022-08-03T10:51:01.490Z,99892.69
2022-08-03T10:52:00.209Z,99887.21
2022-08-03T10:53:01.930Z,99888.42
2022-08-03T10:54:01.912Z,99886.42
2022-08-03T10:55:01.226Z,99886.52
2022-08-03T10:56:01.062Z,99886.76
2022-08-03T10:57:10.965Z,99882.92
2022-08-03T10:58:01.312Z,99887.08
2022-08-03T10:59:03.766Z,99886.58
2022-08-03T11:00:01.524Z,99880.89
2022-08-03T11:01:01.511Z,99887.03
2022-08-03T11:02:01.838Z,99886.33
2022-08-03T11:03:05.518Z,99886.39
2022-08-03T11:06:16.914Z,99893
2022-08-03T11:07:22.105Z,99895.12
2022-08-03T11:09:18.224Z,99889.2
2022-08-03T11:10:31.337Z,99889.79
2022-08-03T11:11:27.157Z,99896.75
2022-08-03T11:12:30.597Z,99892.89
2022-08-03T11:13:24.589Z,99891.89
2022-08-03T11:14:23.744Z,99895.02
2022-08-03T11:15:33.073Z,99895.73
2022-08-03T11:16:26.769Z,99891.72
2022-08-03T11:17:25.331Z,99890.91
2022-08-03T11:18:27.116Z,99891.86
2022-08-03T11:24:04.486Z,99888.2
2022-08-03T11:26:40.776Z,99886.39
2022-08-03T11:27:40.758Z,99883.97
2022-08-03T11:28:41.349Z,99884.06
2022-08-03T11:30:41.943Z,99880.14
2022-08-03T11:31:52.405Z,99883.19
2022-08-03T11:40:05.105Z,99878.45
2022-08-03T11:41:04.906Z,99871.22
2022-08-03T11:43:10.772Z,99873.84
2022-08-03T11:44:07.146Z,99877.81
2022-08-03T11:45:08.128Z,99874.02
2022-08-03T11:46:08.274Z,99869.8
2022-08-03T11:47:08.834Z,99873.77
2022-08-03T11:49:11.557Z,99869.11
2022-08-03T11:50:10.773Z,99869.47
2022-08-03T11:52:11.633Z,99867.05
2022-08-03T11:53:15.667Z,99873.49
2022-08-03T11:54:12.213Z,99872.23
2022-08-03T11:55:12.582Z,99867.98
2022-08-03T11:56:12.880Z,99873.75
2022-08-03T11:57:12.290Z,99870.55
2022-08-03T11:59:20.240Z,99874.3
2022-08-03T12:01:23.391Z,99871
2022-08-03T12:02:22.604Z,99871.63
2022-08-03T12:03:22.561Z,99871.8
2022-08-03T12:04:22.403Z,99874.2
2022-08-03T12:05:32.538Z,99873.33
2022-08-03T12:06:24.434Z,99879.2
2022-08-03T12:08:04.422Z,99876.2
2022-08-03T12:09:29.151Z,99878.38
2022-08-03T12:10:29.091Z,99884.64
2022-08-03T12:11:29.124Z,99886.59
2022-08-03T12:12:29.199Z,99881.03
2022-08-03T12:14:48.376Z,99879.58
2022-08-03T12:15:31.313Z,99882.2
2022-08-03T12:16:30.662Z,99879.48
2022-08-03T12:18:32.374Z,99877.59
2022-08-03T12:19:41.959Z,99878.86
2022-08-03T12:20:35.126Z,99880.56
2022-08-03T12:21:33.513Z,99876
2022-08-03T12:22:37.610Z,99876.05
2022-08-03T12:23:37.633Z,99879.53
2022-08-03T12:24:46.631Z,99873.68
2022-08-03T12:25:40.043Z,99874.94
2022-08-03T12:26:45.271Z,99881.02
2022-08-03T12:27:40.623Z,99881.25
2022-08-03T12:29:41.361Z,99881.09
2022-08-03T12:30:41.477Z,99874.84
2022-08-03T12:31:41.262Z,99878.16
2022-08-03T12:32:42.885Z,99876.25
2022-08-03T12:37:22.952Z,99870
2022-08-03T12:38:20.909Z,99878.8
2022-08-03T12:39:24.203Z,99878.95
2022-08-03T12:41:29.254Z,99884.99
2022-08-03T12:43:28.301Z,99881.95
2022-08-03T12:44:34.688Z,99880.48
2022-08-03T12:45:31.164Z,99879.73
2022-08-03T12:46:38.143Z,99877.63
2022-08-03T12:48:37.093Z,99877.14
2022-08-03T12:49:46.495Z,99872.5
2022-08-03T12:50:39.125Z,99877.45
2022-08-03T12:52:45.236Z,99871.23
2022-08-03T12:53:42.231Z,99870.33
2022-08-03T12:54:42.429Z,99879.06
2022-08-03T12:56:04.565Z,99875.66
2022-08-03T12:57:49.094Z,99873.54
2022-08-03T12:58:49.151Z,99875.36
2022-08-03T12:59:53.285Z,99876.2
2022-08-03T13:00:56.716Z,99878.87
2022-08-03T13:01:55.283Z,99879.25
2022-08-03T13:03:39.569Z,99874.77
2022-08-03T13:03:55.859Z,99876
2022-08-03T13:04:55.681Z,99878.13
2022-08-03T13:05:55.524Z,99875.46
2022-08-03T13:07:03.571Z,99876.09
2022-08-03T13:07:55.715Z,99875.89
2022-08-03T13:09:06.330Z,99876.31
2022-08-03T13:09:58.314Z,99877.52
2022-08-03T13:10:58.303Z,99874.89